Pagrindinis puslapis
METAR-TAF:

METAR-TAF

Oro uostai :

Ajačas, Prancūzija

platuma: 41-55N, ilguma: 008-48E, Aukštis: 6 m

Dabartinis oras

Ataskaita buvo paskelbta 34 minutes, ne 22:00 UTC
Vėjas 4 kt iš Šiaurės/Šiaurės Rytų
Temperatūra 9°C
Drėgmė 93%
Slėgis 1020 hPa
Matomumas 10 km arba daugiau
Su prošvaistėmis ne aukštis 2700 ft
Su prošvaistėmis ne aukštis 3700 ft
Su prošvaistėmis ne aukštis 4300 ft

METAR: LFKJ 272200Z AUTO 03004KT 9999 BKN027 BKN037 BKN043 09/08 Q1020 NOSIG

Laikas: 23:34 (22:34 UTC)

Prognozė

Ataskaita buvo paskelbta 2 valandos ir 34 minutes, ne 20:00 UTC
Prognozė galioja nuo 27 metu 21 UTC su 28 metu 21 UTC
Vėjas 5 kt iš Šiaurės Rytų
Matomumas 10 km arba daugiau
Tapsmas
nuo 27 metu 21 UTC su 27 metu 24 UTC
Su prošvaistėmis ne aukštis 2500 ft
Tapsmas
nuo 28 metu 08 UTC su 28 metu 11 UTC
Vėjas 8 kt iš Vakarų/Pietvakarių
Laikinai
nuo 28 metu 08 UTC su 28 metu 13 UTC
lietus

TAF: LFKJ 272000Z 2721/2821 04005KT 9999 NSC BECMG 2721/2724 BKN025 BECMG 2808/2811 24008KT TEMPO 2808/2813 RA

Orai ataskaitas ir orų prognozės (METAR, TAF).

turimą stotys yra geltonos ir raudonos taškus žemėlapyje.

Perkelti pele per norėdami pamatyti stoties vardą.

Tada spustelėkite, norėdami matyti oro stebėjimo ir prognozės.

Norėdami pakeisti žemėlapį: spustelėkite ant žalios mygtukų su juodo kryžiaus žemyn,; žalią mygtuką su brūkšneliu, jei norite nutolinti; arba žalių rodyklių gretimoms žemėlapius.


METAR-TAF: